createdAt,value
2022-07-30T00:00:57.100Z,7.22
2022-07-30T00:02:59.013Z,7.00
2022-07-30T00:05:01.261Z,6.50
2022-07-30T00:07:04.549Z,7.07
2022-07-30T00:09:07.318Z,6.32
2022-07-30T00:11:09.533Z,5.28
2022-07-30T00:13:14.257Z,5.38
2022-07-30T00:15:16.709Z,5.88
2022-07-30T00:17:18.471Z,5.35
2022-07-30T00:19:21.291Z,5.15
2022-07-30T00:21:35.598Z,5.50
2022-07-30T00:23:41.306Z,5.88
2022-07-30T00:26:03.040Z,5.22
2022-07-30T00:28:05.043Z,6.10
2022-07-30T00:30:07.375Z,5.18
2022-07-30T00:32:09.236Z,6.20
2022-07-30T00:34:13.028Z,5.63
2022-07-30T00:36:14.908Z,5.47
2022-07-30T00:38:16.718Z,5.25
2022-07-30T00:40:18.928Z,5.22
2022-07-30T00:42:25.812Z,5.68
2022-07-30T00:44:28.512Z,5.88
2022-07-30T00:46:30.514Z,5.47
2022-07-30T00:48:32.356Z,5.60
2022-07-30T00:50:34.421Z,5.65
2022-07-30T00:52:41.295Z,5.72
2022-07-30T00:54:43.097Z,5.32
2022-07-30T00:56:44.940Z,4.97
2022-07-30T00:58:46.705Z,5.30
2022-07-30T01:00:48.662Z,5.15
2022-07-30T01:02:50.637Z,4.82
2022-07-30T01:04:52.730Z,4.60
2022-07-30T01:06:54.556Z,5.30
2022-07-30T01:08:56.568Z,4.32
2022-07-30T01:10:58.548Z,4.55
2022-07-30T01:13:02.048Z,4.95
2022-07-30T01:15:06.782Z,5.05
2022-07-30T01:17:08.954Z,5.03
2022-07-30T01:19:48.298Z,4.53
2022-07-30T01:22:00.274Z,5.20
2022-07-30T01:24:21.607Z,4.53
2022-07-30T01:26:23.869Z,5.15
2022-07-30T01:28:42.348Z,5.05
2022-07-30T01:30:45.734Z,5.00
2022-07-30T01:32:49.497Z,5.53
2022-07-30T01:34:53.485Z,5.28
2022-07-30T01:36:58.989Z,5.05
2022-07-30T01:39:02.129Z,4.97
2022-07-30T01:41:05.537Z,4.45
2022-07-30T01:43:09.165Z,5.07
2022-07-30T01:45:13.095Z,5.25
2022-07-30T01:47:17.314Z,4.57
2022-07-30T01:49:22.226Z,5.20
2022-07-30T01:51:24.920Z,4.97
2022-07-30T01:53:31.789Z,4.85
2022-07-30T01:55:37.134Z,4.90
2022-07-30T01:57:40.072Z,4.70
2022-07-30T01:59:46.122Z,4.35
2022-07-30T02:01:48.527Z,4.95
2022-07-30T02:03:51.225Z,4.53
2022-07-30T02:05:59.217Z,4.38
2022-07-30T02:08:40.151Z,4.82
2022-07-30T02:10:48.794Z,4.32
2022-07-30T02:12:56.144Z,4.53
2022-07-30T02:15:10.836Z,4.57
2022-07-30T02:17:19.410Z,4.57
2022-07-30T02:19:23.895Z,4.88
2022-07-30T02:21:39.695Z,5.20
2022-07-30T02:23:55.865Z,4.80
2022-07-30T02:26:00.789Z,5.03
2022-07-30T02:28:09.381Z,5.10
2022-07-30T02:30:12.385Z,4.00
2022-07-30T02:32:15.525Z,5.28
2022-07-30T02:34:22.607Z,4.43
2022-07-30T02:36:25.861Z,4.50
2022-07-30T02:38:29.974Z,4.68
2022-07-30T02:40:32.341Z,4.20
2022-07-30T02:42:35.342Z,5.47
2022-07-30T02:44:38.669Z,4.90
2022-07-30T02:46:41.812Z,4.47
2022-07-30T02:49:24.197Z,4.78
2022-07-30T02:51:28.174Z,5.00
2022-07-30T02:53:32.504Z,5.15
2022-07-30T02:55:36.952Z,5.15
2022-07-30T02:57:43.335Z,4.88
2022-07-30T02:59:49.087Z,5.20
2022-07-30T03:01:52.457Z,4.82
2022-07-30T03:03:55.357Z,4.50
2022-07-30T03:05:59.680Z,4.65
2022-07-30T03:08:02.831Z,5.22
2022-07-30T03:10:06.789Z,5.05
2022-07-30T03:12:10.566Z,5.30
2022-07-30T03:14:12.777Z,5.80
2022-07-30T03:16:17.294Z,5.45
2022-07-30T03:18:20.970Z,5.63
2022-07-30T03:20:27.588Z,5.25
2022-07-30T03:22:33.242Z,5.20
2022-07-30T03:24:38.356Z,6.30
2022-07-30T03:26:41.950Z,5.50
2022-07-30T03:28:44.785Z,5.60
2022-07-30T03:30:46.941Z,4.95
2022-07-30T03:32:50.386Z,6.10
2022-07-30T03:34:54.234Z,5.28
2022-07-30T03:37:03.374Z,5.60
2022-07-30T03:39:08.216Z,5.28
2022-07-30T03:41:11.069Z,4.93
2022-07-30T03:43:32.378Z,5.40
2022-07-30T03:45:44.502Z,6.13
2022-07-30T03:47:47.775Z,6.55
2022-07-30T03:49:49.841Z,6.65
2022-07-30T03:51:53.530Z,7.47
2022-07-30T03:53:56.217Z,7.07
2022-07-30T03:56:16.222Z,7.72
2022-07-30T03:58:39.073Z,6.75
2022-07-30T04:00:42.074Z,7.18
2022-07-30T04:02:45.763Z,6.72
2022-07-30T04:05:15.350Z,6.05
2022-07-30T04:07:17.904Z,7.35
2022-07-30T04:09:19.755Z,9.60
2022-07-30T04:11:40.641Z,9.27
2022-07-30T04:13:46.133Z,8.13
2022-07-30T04:16:39.406Z,7.57
2022-07-30T04:18:33.341Z,9.25
2022-07-30T04:20:41.231Z,7.57
2022-07-30T04:22:43.796Z,8.02
2022-07-30T04:24:46.028Z,8.55
2022-07-30T04:26:49.292Z,7.88
2022-07-30T04:28:51.891Z,9.23
2022-07-30T04:34:48.322Z,7.82
2022-07-30T04:36:52.947Z,8.25
2022-07-30T04:38:54.776Z,7.30
2022-07-30T04:40:56.660Z,8.80
2022-07-30T04:42:59.045Z,7.40
2022-07-30T04:45:01.009Z,7.30
2022-07-30T04:47:23.603Z,6.93
2022-07-30T04:49:46.529Z,7.05
2022-07-30T04:51:49.672Z,6.72
2022-07-30T04:53:54.843Z,7.55
2022-07-30T04:55:59.397Z,7.13
2022-07-30T04:58:04.510Z,8.23
2022-07-30T05:00:10.434Z,7.35
2022-07-30T05:02:16.507Z,8.02
2022-07-30T05:04:20.576Z,7.72
2022-07-30T05:06:24.144Z,8.20
2022-07-30T05:08:28.266Z,7.90
2022-07-30T05:10:33.953Z,7.95
2022-07-30T05:12:40.039Z,8.40
2022-07-30T05:14:46.579Z,7.53
2022-07-30T05:16:51.488Z,8.43
2022-07-30T05:18:53.557Z,8.80
2022-07-30T05:20:55.456Z,8.48
2022-07-30T05:23:01.486Z,8.15
2022-07-30T05:25:04.566Z,7.25
2022-07-30T05:27:20.381Z,7.35
2022-07-30T05:29:22.189Z,7.65
2022-07-30T05:31:31.089Z,7.05
2022-07-30T05:33:41.008Z,7.10
2022-07-30T05:35:46.680Z,7.18
2022-07-30T05:37:48.789Z,6.82
2022-07-30T05:39:57.320Z,6.68
2022-07-30T05:42:22.646Z,6.40
2022-07-30T05:44:27.079Z,6.28
2022-07-30T05:46:31.449Z,6.93
2022-07-30T05:48:35.764Z,7.65
2022-07-30T05:50:37.706Z,6.78
2022-07-30T05:52:39.753Z,5.13
2022-07-30T05:55:01.422Z,5.22
2022-07-30T05:57:22.856Z,5.00
2022-07-30T05:59:24.739Z,5.35
2022-07-30T06:01:55.941Z,5.18
2022-07-30T06:04:04.224Z,5.72
2022-07-30T06:06:28.799Z,4.65
2022-07-30T06:08:30.938Z,5.05
2022-07-30T06:10:33.251Z,5.50
2022-07-30T06:12:35.468Z,5.57
2022-07-30T06:14:37.907Z,7.03
2022-07-30T06:16:41.279Z,7.03
2022-07-30T06:18:43.348Z,7.22
2022-07-30T06:20:54.542Z,6.20
2022-07-30T06:23:05.505Z,5.38
2022-07-30T06:25:21.930Z,5.78
2022-07-30T06:27:24.124Z,6.93
2022-07-30T06:29:25.936Z,5.63
2022-07-30T06:31:27.859Z,4.85
2022-07-30T06:33:30.318Z,4.80
2022-07-30T06:35:32.233Z,4.85
2022-07-30T06:37:58.802Z,5.20
2022-07-30T06:39:58.992Z,4.97
2022-07-30T06:42:39.137Z,5.05
2022-07-30T06:44:59.499Z,5.05
2022-07-30T06:47:07.575Z,4.80
2022-07-30T06:49:11.965Z,4.78
2022-07-30T06:51:14.383Z,4.75
2022-07-30T06:53:16.234Z,5.32
2022-07-30T06:56:00.202Z,4.78
2022-07-30T06:58:08.794Z,4.60
2022-07-30T07:00:28.968Z,4.50
2022-07-30T07:02:31.716Z,4.40
2022-07-30T07:04:54.266Z,4.75
2022-07-30T07:06:56.223Z,5.13
2022-07-30T07:09:06.009Z,4.18
2022-07-30T07:11:15.890Z,4.88
2022-07-30T07:13:21.442Z,4.78
2022-07-30T07:15:32.104Z,5.65
2022-07-30T07:17:40.426Z,5.32
2022-07-30T07:20:03.032Z,5.13
2022-07-30T07:22:11.822Z,5.22
2022-07-30T07:24:14.382Z,5.75
2022-07-30T07:26:45.816Z,4.88
2022-07-30T07:28:48.632Z,5.60
2022-07-30T07:30:50.456Z,5.35
2022-07-30T07:32:52.616Z,5.50
2022-07-30T07:34:54.732Z,6.00
2022-07-30T07:36:56.576Z,5.28
2022-07-30T07:38:58.771Z,5.40
2022-07-30T07:41:01.492Z,6.03
2022-07-30T07:43:05.721Z,5.28
2022-07-30T07:45:09.339Z,5.35
2022-07-30T07:47:19.694Z,5.60
2022-07-30T07:49:36.920Z,5.30
2022-07-30T07:51:47.245Z,5.15
2022-07-30T07:54:11.897Z,5.53
2022-07-30T07:56:15.469Z,5.57
2022-07-30T07:58:25.521Z,5.10
2022-07-30T08:00:31.543Z,5.55
2022-07-30T08:02:33.454Z,5.30
2022-07-30T08:04:41.032Z,5.50
2022-07-30T08:06:42.889Z,5.85
2022-07-30T08:09:04.162Z,5.30
2022-07-30T08:11:41.679Z,5.45
2022-07-30T08:14:03.484Z,5.55
2022-07-30T08:16:28.095Z,5.22
2022-07-30T08:18:58.924Z,5.32
2022-07-30T08:21:08.721Z,5.53
2022-07-30T08:23:10.688Z,5.28
2022-07-30T08:25:21.697Z,5.50
2022-07-30T08:27:24.976Z,5.55
2022-07-30T08:29:29.897Z,5.55
2022-07-30T08:31:31.751Z,5.28
2022-07-30T08:33:33.646Z,5.28
2022-07-30T08:35:36.383Z,5.78
2022-07-30T08:37:50.439Z,5.20
2022-07-30T08:39:54.734Z,5.20
2022-07-30T08:41:57.676Z,5.50
2022-07-30T08:44:01.673Z,5.20
2022-07-30T08:46:08.845Z,5.13
2022-07-30T08:48:23.645Z,4.63
2022-07-30T08:50:26.235Z,5.13
2022-07-30T08:52:49.136Z,5.32
2022-07-30T08:54:51.806Z,4.70
2022-07-30T08:56:54.969Z,5.40
2022-07-30T08:58:58.161Z,5.10
2022-07-30T09:01:00.168Z,5.40
2022-07-30T09:03:04.005Z,5.00
2022-07-30T09:05:06.615Z,4.88
2022-07-30T09:07:08.640Z,5.10
2022-07-30T09:09:12.044Z,4.90
2022-07-30T09:11:16.126Z,4.78
2022-07-30T09:13:32.507Z,4.90
2022-07-30T09:15:38.727Z,5.55
2022-07-30T09:17:52.671Z,5.43
2022-07-30T09:20:04.156Z,5.00
2022-07-30T09:22:09.479Z,5.20
2022-07-30T09:24:45.793Z,5.13
2022-07-30T09:27:06.456Z,5.03
2022-07-30T09:29:29.114Z,4.78
2022-07-30T09:32:02.151Z,5.10
2022-07-30T09:34:29.891Z,5.15
2022-07-30T09:36:34.573Z,5.45
2022-07-30T09:38:55.734Z,5.70
2022-07-30T09:41:39.649Z,5.60
2022-07-30T09:43:50.357Z,4.95
2022-07-30T09:46:08.239Z,5.43
2022-07-30T09:48:22.017Z,6.15
2022-07-30T09:50:30.263Z,6.97
2022-07-30T09:52:34.909Z,7.18
2022-07-30T09:54:52.619Z,7.22
2022-07-30T09:57:05.819Z,6.68
2022-07-30T09:59:07.816Z,6.68
2022-07-30T10:01:21.920Z,7.13
2022-07-30T10:04:06.212Z,6.88
2022-07-30T10:06:41.999Z,6.60
2022-07-30T10:09:01.294Z,7.30
2022-07-30T10:11:22.708Z,6.55
2022-07-30T10:13:34.894Z,7.15
2022-07-30T10:15:37.290Z,6.50
2022-07-30T10:17:41.912Z,7.15
2022-07-30T10:20:12.324Z,6.57
2022-07-30T10:22:35.862Z,7.28
2022-07-30T10:24:56.974Z,6.68
2022-07-30T10:27:18.240Z,7.72
2022-07-30T10:29:33.619Z,7.38
2022-07-30T10:31:48.862Z,7.22
2022-07-30T10:33:51.996Z,7.35
2022-07-30T10:35:54.395Z,7.00
2022-07-30T10:37:58.206Z,7.45
2022-07-30T10:40:10.462Z,7.63
2022-07-30T10:42:44.979Z,7.45
2022-07-30T10:45:17.321Z,7.20
2022-07-30T10:47:21.245Z,7.03
2022-07-30T10:49:25.946Z,7.82
2022-07-30T10:52:03.815Z,6.90
2022-07-30T10:54:39.471Z,7.68
2022-07-30T10:56:41.931Z,7.57
2022-07-30T10:59:10.821Z,7.60
2022-07-30T11:01:17.911Z,7.32
2022-07-30T11:03:40.465Z,7.60
2022-07-30T11:05:49.270Z,6.53
2022-07-30T11:07:51.303Z,6.65
2022-07-30T11:10:05.177Z,6.78
2022-07-30T11:12:12.613Z,7.05
2022-07-30T11:14:17.941Z,6.50
2022-07-30T11:16:24.544Z,7.10
2022-07-30T11:18:28.751Z,6.18
2022-07-30T11:20:32.415Z,6.75
2022-07-30T11:22:44.775Z,7.32
2022-07-30T11:24:48.936Z,8.45
2022-07-30T11:26:51.892Z,7.95
2022-07-30T11:28:54.371Z,8.10
2022-07-30T11:30:56.801Z,8.07
2022-07-30T11:33:04.311Z,7.10
2022-07-30T11:35:19.219Z,8.18
2022-07-30T11:37:22.199Z,8.10
2022-07-30T11:39:55.366Z,7.53
2022-07-30T11:42:24.310Z,6.93
2022-07-30T11:44:28.614Z,6.93
2022-07-30T11:46:30.728Z,7.10
2022-07-30T11:48:33.396Z,7.32
2022-07-30T11:50:36.534Z,6.85
2022-07-30T11:52:38.557Z,5.75
2022-07-30T11:54:54.272Z,6.90
2022-07-30T11:57:04.442Z,5.88
2022-07-30T11:59:08.510Z,6.40
2022-07-30T12:01:16.354Z,6.63
2022-07-30T12:03:21.253Z,6.93
2022-07-30T12:05:26.167Z,6.30
2022-07-30T12:07:28.164Z,6.57
2022-07-30T12:09:30.042Z,7.03
2022-07-30T12:11:33.862Z,6.40
2022-07-30T12:13:44.940Z,6.53
2022-07-30T12:15:50.415Z,7.13
2022-07-30T12:18:11.134Z,7.25
2022-07-30T12:20:17.849Z,7.22
2022-07-30T12:22:19.927Z,6.70
2022-07-30T12:24:26.882Z,6.78
2022-07-30T12:26:30.989Z,6.88
2022-07-30T12:28:35.932Z,6.70
2022-07-30T12:30:41.140Z,6.85
2022-07-30T12:32:44.460Z,7.32
2022-07-30T12:34:56.905Z,7.70
2022-07-30T12:37:08.922Z,7.38
2022-07-30T12:39:19.520Z,7.82
2022-07-30T12:41:22.638Z,7.72
2022-07-30T12:43:46.568Z,8.40
2022-07-30T12:45:51.906Z,8.05
2022-07-30T12:47:57.671Z,7.55
2022-07-30T12:50:01.678Z,6.88
2022-07-30T12:52:03.871Z,7.40
2022-07-30T12:54:19.541Z,6.57
2022-07-30T12:56:24.271Z,7.22
2022-07-30T12:58:37.991Z,6.60
2022-07-30T13:00:51.179Z,7.57
2022-07-30T13:02:53.143Z,7.45
2022-07-30T13:05:11.090Z,7.30
2022-07-30T13:07:13.768Z,6.60
2022-07-30T13:09:22.134Z,6.70
2022-07-30T13:11:48.475Z,6.72
2022-07-30T13:13:51.644Z,6.70
2022-07-30T13:16:05.466Z,6.80
2022-07-30T13:18:07.613Z,5.90
2022-07-30T13:20:10.232Z,6.28
2022-07-30T13:22:13.533Z,6.05
2022-07-30T13:24:17.881Z,6.45
2022-07-30T13:26:20.175Z,7.15
2022-07-30T13:28:22.561Z,6.28
2022-07-30T13:30:24.400Z,6.05
2022-07-30T13:32:26.167Z,6.40
2022-07-30T13:34:28.072Z,9.35
2022-07-30T13:36:29.859Z,9.02
2022-07-30T13:38:32.043Z,10.50
2022-07-30T13:40:34.178Z,9.48
2022-07-30T13:42:35.940Z,9.65
2022-07-30T13:44:38.026Z,9.60
2022-07-30T13:46:41.447Z,10.88
2022-07-30T13:48:43.446Z,11.20
2022-07-30T13:50:45.584Z,10.60
2022-07-30T13:52:47.817Z,10.45
2022-07-30T13:54:51.428Z,10.50
2022-07-30T13:56:53.547Z,10.70
2022-07-30T13:58:55.296Z,9.05
2022-07-30T14:00:58.029Z,9.68
2022-07-30T14:03:02.158Z,9.27
2022-07-30T14:05:07.418Z,10.10
2022-07-30T14:07:09.237Z,8.07
2022-07-30T14:09:11.016Z,8.35
2022-07-30T14:11:12.848Z,7.80
2022-07-30T14:13:16.034Z,8.15
2022-07-30T14:15:24.749Z,7.57
2022-07-30T14:17:26.587Z,8.60
2022-07-30T14:19:28.505Z,8.23
2022-07-30T14:21:30.325Z,8.38
2022-07-30T14:23:32.197Z,7.32
2022-07-30T14:25:33.912Z,7.47
2022-07-30T14:27:36.509Z,8.30
2022-07-30T14:29:38.335Z,8.73
2022-07-30T14:31:40.727Z,8.60
2022-07-30T14:33:42.593Z,6.97
2022-07-30T14:35:44.393Z,7.50
2022-07-30T14:37:46.272Z,8.10
2022-07-30T14:39:48.320Z,7.53
2022-07-30T14:41:53.172Z,7.43
2022-07-30T14:43:58.092Z,6.90
2022-07-30T14:45:59.998Z,8.10
2022-07-30T14:48:02.442Z,9.13
2022-07-30T14:50:05.323Z,8.15
2022-07-30T14:52:07.526Z,9.00
2022-07-30T14:54:11.996Z,8.27
2022-07-30T14:56:13.876Z,7.88
2022-07-30T14:58:16.107Z,8.55
2022-07-30T15:00:18.546Z,8.43
2022-07-30T15:02:23.767Z,9.13
2022-07-30T15:04:25.988Z,7.72
2022-07-30T15:06:28.219Z,7.55
2022-07-30T15:08:30.303Z,7.43
2022-07-30T15:10:32.174Z,6.93
2022-07-30T15:12:34.119Z,7.28
2022-07-30T15:14:38.167Z,6.32
2022-07-30T15:16:41.620Z,6.65
2022-07-30T15:18:43.482Z,7.63
2022-07-30T15:20:45.247Z,7.20
2022-07-30T15:22:47.033Z,7.15
2022-07-30T15:24:49.198Z,6.25
2022-07-30T15:26:51.326Z,7.30
2022-07-30T15:28:53.208Z,7.03
2022-07-30T15:30:55.806Z,6.88
2022-07-30T15:32:57.982Z,7.32
2022-07-30T15:34:59.818Z,7.65
2022-07-30T15:37:02.951Z,7.55
2022-07-30T15:39:06.211Z,6.93
2022-07-30T15:41:13.306Z,7.60
2022-07-30T15:43:15.504Z,7.32
2022-07-30T15:45:18.632Z,7.18
2022-07-30T15:47:22.068Z,7.30
2022-07-30T15:49:24.141Z,8.23
2022-07-30T15:51:26.069Z,7.47
2022-07-30T15:53:28.148Z,8.27
2022-07-30T15:55:30.297Z,7.55
2022-07-30T15:57:49.030Z,6.80
2022-07-30T15:59:50.863Z,10.05
2022-07-30T16:01:53.183Z,9.50
2022-07-30T16:03:54.942Z,9.07
2022-07-30T16:05:56.751Z,8.63
2022-07-30T16:07:58.867Z,8.85
2022-07-30T16:10:00.683Z,7.60
2022-07-30T16:12:02.905Z,7.43
2022-07-30T16:14:04.896Z,7.57
2022-07-30T16:16:06.708Z,8.85
2022-07-30T16:18:08.952Z,8.48
2022-07-30T16:20:11.094Z,8.98
2022-07-30T16:22:14.920Z,10.27
2022-07-30T16:24:23.942Z,10.00
2022-07-30T16:26:25.881Z,11.13
2022-07-30T16:28:27.646Z,10.45
2022-07-30T16:30:29.482Z,9.73
2022-07-30T16:32:31.327Z,9.80
2022-07-30T16:34:33.459Z,9.32
2022-07-30T16:36:35.311Z,9.13
2022-07-30T16:38:37.534Z,9.70
2022-07-30T16:40:39.380Z,9.98
2022-07-30T16:42:41.294Z,10.00
2022-07-30T16:44:43.107Z,10.93
2022-07-30T16:46:44.986Z,11.75
2022-07-30T16:48:46.814Z,12.30
2022-07-30T16:50:52.480Z,10.73
2022-07-30T16:52:54.218Z,11.75
2022-07-30T16:54:56.029Z,10.77
2022-07-30T16:56:58.370Z,8.85
2022-07-30T16:59:00.340Z,11.10
2022-07-30T17:01:02.253Z,10.52
2022-07-30T17:03:04.370Z,12.48
2022-07-30T17:05:09.590Z,10.65
2022-07-30T17:07:13.996Z,10.15
2022-07-30T17:09:16.149Z,9.93
2022-07-30T17:11:46.455Z,10.35
2022-07-30T17:13:40.457Z,10.20
2022-07-30T17:15:42.643Z,9.32
2022-07-30T17:17:44.606Z,9.85
2022-07-30T17:19:46.449Z,8.93
2022-07-30T17:21:48.697Z,9.77
2022-07-30T17:23:50.692Z,10.88
2022-07-30T17:25:52.507Z,11.18
2022-07-30T17:27:59.111Z,9.52
2022-07-30T17:30:02.090Z,10.23
2022-07-30T17:32:04.575Z,10.80
2022-07-30T17:34:09.071Z,9.77
2022-07-30T17:36:12.815Z,9.45
2022-07-30T17:38:14.730Z,10.52
2022-07-30T17:40:29.099Z,9.52
2022-07-30T17:42:32.872Z,10.05
2022-07-30T17:44:35.509Z,9.68
2022-07-30T17:46:37.468Z,9.25
2022-07-30T17:48:39.602Z,10.27
2022-07-30T17:50:41.345Z,10.00
2022-07-30T17:52:43.420Z,10.20
2022-07-30T17:54:45.161Z,10.25
2022-07-30T17:56:48.114Z,9.38
2022-07-30T17:58:51.265Z,8.93
2022-07-30T18:00:53.526Z,8.15
2022-07-30T18:02:55.375Z,9.77
2022-07-30T18:04:57.291Z,8.63
2022-07-30T18:06:59.550Z,9.02
2022-07-30T18:09:01.794Z,8.95
2022-07-30T18:11:03.721Z,7.20
2022-07-30T18:13:25.824Z,6.30
2022-07-30T18:15:28.382Z,6.00
2022-07-30T18:17:30.207Z,5.75
2022-07-30T18:19:32.320Z,5.57
2022-07-30T18:21:34.499Z,5.43
2022-07-30T18:23:40.536Z,5.97
2022-07-30T18:25:53.042Z,5.82
2022-07-30T18:27:56.525Z,6.05
2022-07-30T18:29:58.768Z,5.72
2022-07-30T18:32:00.781Z,5.88
2022-07-30T18:34:03.082Z,5.55
2022-07-30T18:36:05.161Z,4.80
2022-07-30T18:38:06.895Z,5.78
2022-07-30T18:40:10.493Z,5.85
2022-07-30T18:42:12.313Z,4.80
2022-07-30T18:44:14.258Z,7.45
2022-07-30T18:46:16.409Z,6.05
2022-07-30T18:48:18.290Z,6.28
2022-07-30T18:50:20.163Z,6.45
2022-07-30T18:52:22.386Z,6.43
2022-07-30T18:54:24.141Z,6.10
2022-07-30T18:56:26.136Z,5.70
2022-07-30T18:58:28.026Z,5.40
2022-07-30T19:00:35.289Z,5.45
2022-07-30T19:02:38.212Z,5.30
2022-07-30T19:04:40.324Z,5.60
2022-07-30T19:06:42.187Z,5.50
2022-07-30T19:08:44.037Z,5.78
2022-07-30T19:10:45.827Z,5.78
2022-07-30T19:12:47.654Z,6.28
2022-07-30T19:14:49.939Z,5.97
2022-07-30T19:16:52.466Z,6.32
2022-07-30T19:18:54.300Z,5.68
2022-07-30T19:20:56.149Z,5.28
2022-07-30T19:23:05.727Z,5.85
2022-07-30T19:25:08.316Z,5.47
2022-07-30T19:27:14.095Z,5.35
2022-07-30T19:29:16.853Z,6.18
2022-07-30T19:31:19.804Z,6.20
2022-07-30T19:33:21.919Z,5.68
2022-07-30T19:35:23.825Z,5.72
2022-07-30T19:37:25.686Z,5.72
2022-07-30T19:39:27.510Z,5.80
2022-07-30T19:41:30.317Z,6.05
2022-07-30T19:43:33.681Z,5.30
2022-07-30T19:45:47.793Z,5.60
2022-07-30T19:47:50.339Z,5.72
2022-07-30T19:49:53.645Z,5.53
2022-07-30T19:52:10.690Z,5.78
2022-07-30T19:54:17.673Z,6.07
2022-07-30T19:56:20.008Z,5.10
2022-07-30T19:58:22.068Z,5.00
2022-07-30T20:00:26.829Z,5.10
2022-07-30T20:02:28.817Z,5.78
2022-07-30T20:04:30.891Z,5.57
2022-07-30T20:06:32.704Z,6.07
2022-07-30T20:08:38.271Z,5.95
2022-07-30T20:10:40.708Z,5.72
2022-07-30T20:12:42.884Z,6.25
2022-07-30T20:14:51.433Z,5.43
2022-07-30T20:16:53.225Z,6.00
2022-07-30T20:18:55.096Z,5.55
2022-07-30T20:20:57.656Z,5.72
2022-07-30T20:22:59.830Z,6.93
2022-07-30T20:25:02.638Z,5.47
2022-07-30T20:27:36.539Z,5.40
2022-07-30T20:29:26.845Z,5.60
2022-07-30T20:31:28.717Z,5.45
2022-07-30T20:33:37.758Z,6.57
2022-07-30T20:35:41.005Z,5.40
2022-07-30T20:37:55.035Z,5.53
2022-07-30T20:39:58.104Z,4.88
2022-07-30T20:42:12.060Z,6.10
2022-07-30T20:44:23.308Z,6.38
2022-07-30T20:46:25.686Z,5.55
2022-07-30T20:48:34.530Z,5.72
2022-07-30T20:50:39.017Z,5.97
2022-07-30T20:52:44.946Z,5.28
2022-07-30T20:54:48.316Z,4.97
2022-07-30T20:56:50.555Z,5.63
2022-07-30T20:58:52.791Z,5.68
2022-07-30T21:00:57.499Z,5.18
2022-07-30T21:03:03.149Z,5.57
2022-07-30T21:05:05.644Z,5.53
2022-07-30T21:07:08.101Z,6.00
2022-07-30T21:09:12.905Z,5.65
2022-07-30T21:11:14.869Z,6.25
2022-07-30T21:13:17.530Z,5.85
2022-07-30T21:15:23.767Z,5.85
2022-07-30T21:17:26.347Z,5.80
2022-07-30T21:19:30.682Z,5.68
2022-07-30T21:21:41.849Z,6.22
2022-07-30T21:23:49.820Z,6.25
2022-07-30T21:26:00.354Z,6.13
2022-07-30T21:28:05.187Z,6.53
2022-07-30T21:30:07.624Z,5.63
2022-07-30T21:32:10.150Z,6.13
2022-07-30T21:34:13.464Z,6.20
2022-07-30T21:36:15.416Z,6.35
2022-07-30T21:38:17.232Z,6.47
2022-07-30T21:40:24.540Z,5.68
2022-07-30T21:42:30.251Z,5.18
2022-07-30T21:44:32.284Z,6.40
2022-07-30T21:46:34.200Z,7.47
2022-07-30T21:48:36.075Z,6.28
2022-07-30T21:50:38.192Z,6.32
2022-07-30T21:52:40.181Z,5.80
2022-07-30T21:54:48.123Z,8.00
2022-07-30T21:56:50.570Z,6.10
2022-07-30T21:58:52.388Z,6.43
2022-07-30T22:00:55.517Z,6.47
2022-07-30T22:02:57.466Z,6.82
2022-07-30T22:04:59.373Z,7.30
2022-07-30T22:07:04.088Z,5.85
2022-07-30T22:09:19.419Z,6.35
2022-07-30T22:11:42.686Z,6.30
2022-07-30T22:13:51.188Z,6.63
2022-07-30T22:15:53.513Z,6.38
2022-07-30T22:17:57.992Z,6.75
2022-07-30T22:20:01.013Z,7.00
2022-07-30T22:22:05.240Z,7.10
2022-07-30T22:24:29.704Z,5.88
2022-07-30T22:26:32.296Z,6.10
2022-07-30T22:28:34.110Z,6.53
2022-07-30T22:30:35.981Z,6.15
2022-07-30T22:32:38.860Z,6.60
2022-07-30T22:34:40.887Z,6.03
2022-07-30T22:36:45.556Z,6.72
2022-07-30T22:38:58.603Z,6.35
2022-07-30T22:41:01.670Z,6.20
2022-07-30T22:43:09.288Z,6.20
2022-07-30T22:45:14.316Z,6.03
2022-07-30T22:47:17.892Z,5.68
2022-07-30T22:49:45.270Z,5.82
2022-07-30T22:52:03.339Z,5.55
2022-07-30T22:54:12.821Z,5.75
2022-07-30T22:58:36.911Z,5.63
2022-07-30T23:00:41.587Z,5.57
2022-07-30T23:02:45.062Z,5.75
2022-07-30T23:04:47.194Z,5.75
2022-07-30T23:06:51.539Z,6.47
2022-07-30T23:08:53.264Z,5.85
2022-07-30T23:10:57.178Z,5.82
2022-07-30T23:12:30.810Z,6.03
2022-07-30T23:12:59.468Z,6.50
2022-07-30T23:15:01.876Z,6.45
2022-07-30T23:17:03.842Z,5.72
2022-07-30T23:19:06.761Z,6.60
2022-07-30T23:21:08.608Z,6.95
2022-07-30T23:23:11.707Z,6.10
2022-07-30T23:25:14.029Z,6.15
2022-07-30T23:27:15.854Z,6.10
2022-07-30T23:29:17.672Z,6.03
2022-07-30T23:31:21.931Z,6.68
2022-07-30T23:33:25.869Z,5.95
2022-07-30T23:35:27.846Z,6.85
2022-07-30T23:37:29.669Z,6.72
2022-07-30T23:39:49.753Z,6.18
2022-07-30T23:41:51.966Z,7.10
2022-07-30T23:43:53.822Z,6.63
2022-07-30T23:45:55.588Z,6.57
2022-07-30T23:48:02.476Z,6.40
2022-07-30T23:50:05.747Z,7.50
2022-07-30T23:52:07.644Z,8.02
2022-07-30T23:54:09.453Z,8.10
2022-07-30T23:56:15.555Z,7.30
2022-07-30T23:58:18.358Z,7.45
